Time;durP1;ratioP1;P1;durP2;ratioP2;P2;SDS_P1;SDS_P2;PMS_P1;PMS_P2;Temp;Humidity;BMP_temperature;BMP_pressure;BME280_temperature;BME280_humidity;BME280_pressure;Samples;Min_cycle;Max_cycle;Signal;HPM_P1;HPM_P2
2021/06/20 00:02:00;;;;;;;14.68;12.25;;;;;;;19.86;71.10;95103.06;5093802;28;20469;-76
2021/06/20 00:04:25;;;;;;;16.10;12.43;;;;;;;19.89;70.68;95097.06;5105489;28;20448;-76
2021/06/20 00:06:51;;;;;;;15.32;11.48;;;;;;;19.88;70.43;95089.38;5086542;28;20040;-75
2021/06/20 00:09:18;;;;;;;17.73;11.77;;;;;;;19.84;70.78;95081.28;5090050;28;20055;-75
2021/06/20 00:11:45;;;;;;;14.98;11.32;;;;;;;19.88;70.23;95079.50;5103109;28;20044;-76
2021/06/20 00:14:11;;;;;;;13.63;10.88;;;;;;;19.89;70.20;95086.38;5091774;28;20103;-75
2021/06/20 00:16:39;;;;;;;14.93;11.32;;;;;;;19.95;70.11;95094.16;5090626;28;20040;-75
2021/06/20 00:19:06;;;;;;;12.20;10.63;;;;;;;19.89;70.24;95081.03;5090041;28;20039;-75
2021/06/20 00:21:33;;;;;;;15.75;10.95;;;;;;;19.90;70.14;95077.25;5098672;28;20338;-76
2021/06/20 00:23:59;;;;;;;13.10;11.07;;;;;;;19.87;70.29;95077.94;5090496;28;20417;-76
2021/06/20 00:26:25;;;;;;;11.98;10.52;;;;;;;19.87;70.79;95067.25;5091395;28;20097;-76
2021/06/20 00:28:50;;;;;;;12.82;10.27;;;;;;;19.79;70.78;95065.50;5089154;28;20493;-76
2021/06/20 00:31:16;;;;;;;11.82;10.23;;;;;;;19.88;70.82;95068.03;5090937;28;20105;-76
2021/06/20 00:33:43;;;;;;;11.40;10.25;;;;;;;19.86;70.82;95064.94;5090375;28;20040;-76
2021/06/20 00:36:09;;;;;;;12.30;10.50;;;;;;;19.76;70.92;95068.06;5093638;28;20050;-76
2021/06/20 00:38:35;;;;;;;12.02;10.52;;;;;;;19.69;71.62;95076.63;5087249;28;20196;-76
2021/06/20 00:41:02;;;;;;;12.48;10.82;;;;;;;19.62;71.44;95076.44;5096188;28;20045;-76
2021/06/20 00:43:27;;;;;;;14.10;10.93;;;;;;;19.60;71.46;95068.00;5089238;28;20051;-76
2021/06/20 00:45:53;;;;;;;13.50;10.80;;;;;;;19.56;72.41;95062.53;5088487;28;20123;-76
2021/06/20 00:48:19;;;;;;;12.05;10.73;;;;;;;19.54;72.76;95060.22;5083906;28;20036;-76
2021/06/20 00:50:44;;;;;;;12.45;10.60;;;;;;;19.63;72.15;95048.63;5090945;28;20044;-76
2021/06/20 00:53:11;;;;;;;14.38;11.15;;;;;;;19.59;72.24;95045.09;5092088;28;20063;-76
2021/06/20 00:55:37;;;;;;;12.32;10.45;;;;;;;19.61;71.70;95042.84;5092425;28;20063;-76
2021/06/20 00:58:05;;;;;;;12.70;11.40;;;;;;;19.50;72.70;95037.97;5090855;28;20040;-76
2021/06/20 01:00:33;;;;;;;21.15;11.13;;;;;;;19.39;73.32;95044.91;5090265;28;20497;-76
2021/06/20 01:02:58;;;;;;;12.43;10.88;;;;;;;19.41;73.22;95050.69;5078115;28;20039;-77
2021/06/20 01:05:25;;;;;;;12.70;11.40;;;;;;;19.45;73.10;95056.13;5089423;28;20409;-76
2021/06/20 01:07:52;;;;;;;14.45;11.52;;;;;;;19.43;73.27;95059.13;5079239;28;20064;-76
2021/06/20 01:10:19;;;;;;;12.55;11.25;;;;;;;19.46;73.04;95061.13;5079959;28;20036;-76
2021/06/20 01:12:45;;;;;;;13.85;11.73;;;;;;;19.60;72.10;95058.09;5093739;28;20072;-77
2021/06/20 01:15:15;;;;;;;15.10;11.52;;;;;;;19.66;71.88;95061.28;5094427;28;20554;-76
2021/06/20 01:17:41;;;;;;;14.93;10.73;;;;;;;19.64;72.25;95058.19;5089138;28;20070;-76
2021/06/20 01:20:10;;;;;;;13.25;11.50;;;;;;;19.56;72.61;95057.19;5088582;28;20037;-76
2021/06/20 01:22:38;;;;;;;14.40;11.20;;;;;;;19.48;72.91;95056.22;5078258;28;20036;-76
2021/06/20 01:25:08;;;;;;;13.25;11.02;;;;;;;19.45;73.29;95056.91;5092413;28;20032;-76
2021/06/20 01:27:42;;;;;;;12.00;10.75;;;;;;;19.44;73.63;95050.00;5090168;28;20497;-76
2021/06/20 01:30:10;;;;;;;;;;;;;;;19.40;73.44;95054.47;5107526;28;20058;-76
2021/06/20 01:32:35;;;;;;;14.25;11.45;;;;;;;19.28;74.19;95051.81;5098100;28;19923;-76
2021/06/20 01:35:02;;;;;;;12.30;11.02;;;;;;;19.21;74.61;95063.81;5075425;28;20540;-76
2021/06/20 01:37:28;;;;;;;12.43;10.82;;;;;;;19.19;74.77;95049.25;5082786;28;20036;-76
2021/06/20 01:39:54;;;;;;;12.52;11.20;;;;;;;19.18;74.30;95048.50;5092461;28;20775;-76
2021/06/20 01:42:20;;;;;;;15.05;10.98;;;;;;;19.24;74.60;95056.25;5093855;28;20336;-76
2021/06/20 01:44:53;;;;;;;12.60;11.30;;;;;;;19.26;74.60;95060.16;5103097;28;20044;-76
2021/06/20 01:47:22;;;;;;;16.13;11.57;;;;;;;19.31;74.01;95059.13;5088862;28;20447;-76
2021/06/20 01:49:47;;;;;;;14.60;11.20;;;;;;;19.32;74.31;95047.34;5088851;28;20040;-76
2021/06/20 01:52:24;;;;;;;15.82;11.60;;;;;;;19.17;74.62;95052.28;5093698;28;20044;-76
2021/06/20 01:54:50;;;;;;;13.00;11.68;;;;;;;19.15;74.58;95065.19;5094774;28;20493;-76
2021/06/20 01:57:27;;;;;;;13.63;11.07;;;;;;;19.19;74.17;95060.72;5090732;28;20066;-76
2021/06/20 01:59:54;;;;;;;12.82;11.40;;;;;;;19.12;74.71;95051.72;5093339;28;20063;-76
2021/06/20 02:02:21;;;;;;;13.15;11.50;;;;;;;19.03;74.16;95057.94;5095484;28;20316;-76
2021/06/20 02:04:48;;;;;;;14.88;10.90;;;;;;;19.00;74.41;95052.50;5088802;28;20107;-76
2021/06/20 02:07:14;;;;;;;13.15;11.15;;;;;;;18.92;74.75;95050.72;5074467;28;20092;-76
2021/06/20 02:09:40;;;;;;;12.02;10.77;;;;;;;18.92;74.48;95050.72;5091658;28;20040;-76
2021/06/20 02:12:07;;;;;;;11.73;10.52;;;;;;;18.95;74.25;95044.72;5091931;28;20048;-76
2021/06/20 02:14:34;;;;;;;12.43;11.05;;;;;;;18.91;75.03;95038.53;5092918;28;22223;-76
2021/06/20 02:17:10;;;;;;;11.88;10.55;;;;;;;18.80;75.52;95041.59;5094494;28;20044;-76
2021/06/20 02:19:36;;;;;;;13.02;11.05;;;;;;;18.96;74.85;95051.63;5088021;28;20040;-76
2021/06/20 02:22:01;;;;;;;16.42;10.98;;;;;;;19.01;74.28;95059.41;5092917;28;20409;-76
2021/06/20 02:24:28;;;;;;;13.23;10.45;;;;;;;19.08;73.59;95054.28;5094125;28;20089;-76
2021/06/20 02:26:54;;;;;;;12.75;10.82;;;;;;;19.00;74.21;95058.63;5090987;28;20044;-76
2021/06/20 02:29:19;;;;;;;15.88;10.60;;;;;;;18.93;74.23;95052.28;5091441;28;20040;-76
2021/06/20 02:31:45;;;;;;;12.75;11.00;;;;;;;18.91;74.29;95059.84;5091566;28;20394;-76
2021/06/20 02:34:10;;;;;;;11.50;10.32;;;;;;;18.94;74.20;95046.63;5098926;28;20035;-76
2021/06/20 02:36:36;;;;;;;14.07;10.73;;;;;;;18.86;74.30;95037.63;5097691;28;20041;-76
2021/06/20 02:39:02;;;;;;;11.38;10.27;;;;;;;18.75;75.10;95044.50;5085149;28;20058;-76
2021/06/20 02:41:28;;;;;;;13.25;10.80;;;;;;;18.80;74.77;95054.91;5088666;28;20047;-76
2021/06/20 02:43:55;;;;;;;12.70;10.95;;;;;;;18.74;74.88;95045.59;5099268;28;20032;-76
2021/06/20 02:46:21;;;;;;;15.63;11.07;;;;;;;18.63;75.58;95042.59;5096652;28;20055;-76
2021/06/20 02:48:46;;;;;;;13.63;10.48;;;;;;;18.59;75.48;95048.91;5093852;27;20043;-76
2021/06/20 02:51:12;;;;;;;15.23;10.90;;;;;;;18.55;76.21;95053.34;5093442;28;20040;-76
2021/06/20 02:53:37;;;;;;;18.48;11.50;;;;;;;18.53;75.99;95062.47;5092201;28;20040;-76
2021/06/20 02:56:03;;;;;;;11.95;10.43;;;;;;;18.46;76.30;95056.91;5092567;28;20051;-76
2021/06/20 02:58:29;;;;;;;11.88;10.63;;;;;;;18.44;76.50;95048.44;5090873;28;20533;-77
2021/06/20 03:00:54;;;;;;;11.90;10.70;;;;;;;18.35;76.76;95061.88;5091789;28;20493;-76
2021/06/20 03:03:20;;;;;;;12.85;10.68;;;;;;;18.35;76.70;95055.75;5093986;28;20362;-76
2021/06/20 03:05:45;;;;;;;12.10;10.88;;;;;;;18.34;76.19;95048.88;5091287;28;20066;-76
2021/06/20 03:08:11;;;;;;;12.98;10.88;;;;;;;18.27;77.11;95059.28;5099978;28;20218;-76
2021/06/20 03:10:36;;;;;;;13.52;10.30;;;;;;;18.23;77.28;95053.06;5082101;28;20032;-76
2021/06/20 03:13:06;;;;;;;12.50;10.52;;;;;;;18.18;77.37;95057.47;5086952;28;20451;-76
2021/06/20 03:15:32;;;;;;;13.73;11.00;;;;;;;18.16;77.62;95065.03;5091132;28;20036;-76
2021/06/20 03:17:58;;;;;;;12.18;10.98;;;;;;;18.18;77.54;95078.78;5091151;28;20417;-76
2021/06/20 03:20:24;;;;;;;12.20;10.90;;;;;;;18.32;77.00;95078.50;5083401;28;20068;-76
2021/06/20 03:22:49;;;;;;;12.85;11.00;;;;;;;18.29;76.90;95073.06;5100131;28;20036;-76
2021/06/20 03:25:15;;;;;;;12.02;10.82;;;;;;;18.15;77.09;95079.44;5092160;28;20044;-76
2021/06/20 03:27:41;;;;;;;15.07;11.18;;;;;;;18.14;77.44;95077.88;5087795;28;20108;-77
2021/06/20 03:30:07;;;;;;;11.85;10.60;;;;;;;18.14;77.02;95083.22;5096573;28;20036;-76
2021/06/20 03:32:32;;;;;;;15.57;11.38;;;;;;;18.09;77.50;95080.78;5089010;28;20101;-76
2021/06/20 03:34:58;;;;;;;12.77;10.27;;;;;;;18.10;77.38;95087.66;5098315;28;20032;-76
2021/06/20 03:37:23;;;;;;;14.77;11.38;;;;;;;18.09;77.66;95090.66;5095105;28;20067;-76
2021/06/20 03:39:49;;;;;;;12.57;10.52;;;;;;;18.12;77.53;95090.75;5077603;28;20040;-76
2021/06/20 03:42:16;;;;;;;13.05;11.07;;;;;;;18.12;77.38;95096.09;5084631;28;20049;-76
2021/06/20 03:44:42;;;;;;;15.50;10.75;;;;;;;18.17;77.16;95103.09;5091888;28;20035;-76
2021/06/20 03:47:08;;;;;;;16.65;11.80;;;;;;;18.31;77.03;95102.81;5090799;28;20389;-76
2021/06/20 03:49:33;;;;;;;13.95;10.60;;;;;;;18.31;76.88;95097.47;5090779;28;20135;-76
2021/06/20 03:51:59;;;;;;;13.10;11.00;;;;;;;18.29;77.17;95094.38;5090313;28;20529;-76
2021/06/20 03:54:25;;;;;;;16.23;10.55;;;;;;;18.31;77.03;95082.28;5093293;28;20513;-76
2021/06/20 03:56:52;;;;;;;13.43;10.75;;;;;;;18.29;77.41;95073.06;5094098;28;20092;-76
2021/06/20 03:59:18;;;;;;;12.45;11.05;;;;;;;18.23;77.90;95074.38;5102565;28;20056;-76
2021/06/20 04:01:43;;;;;;;12.60;11.00;;;;;;;18.23;77.76;95069.03;5090544;28;20048;-76
2021/06/20 04:04:09;;;;;;;12.73;10.55;;;;;;;18.25;77.85;95064.19;5090429;28;20032;-76
2021/06/20 04:06:35;;;;;;;16.35;11.00;;;;;;;18.21;78.02;95082.69;5110568;28;20073;-76
2021/06/20 04:09:01;;;;;;;13.07;10.55;;;;;;;18.38;77.77;95092.41;5088141;28;20044;-76
2021/06/20 04:11:26;;;;;;;15.40;10.63;;;;;;;18.49;77.29;95096.19;5111308;28;20412;-76
2021/06/20 04:13:52;;;;;;;12.90;10.55;;;;;;;18.52;77.53;95098.19;5089848;28;20082;-76
2021/06/20 04:16:18;;;;;;;14.18;10.98;;;;;;;18.52;77.84;95106.19;5069636;28;20528;-76
2021/06/20 04:18:44;;;;;;;16.85;11.27;;;;;;;18.51;78.08;95107.28;5086697;28;20044;-76
2021/06/20 04:21:09;;;;;;;16.35;11.27;;;;;;;18.61;77.64;95121.31;5090495;28;20040;-76
2021/06/20 04:23:35;;;;;;;12.98;11.40;;;;;;;18.76;77.29;95123.34;5090886;28;20048;-76
2021/06/20 04:26:00;;;;;;;17.23;11.80;;;;;;;18.95;76.32;95132.72;5089577;28;20055;-76
2021/06/20 04:28:26;;;;;;;15.15;11.68;;;;;;;19.09;75.90;95130.50;5091328;28;20078;-76
2021/06/20 04:30:56;;;;;;;17.42;11.60;;;;;;;19.26;74.97;95134.84;5090655;28;20044;-76
2021/06/20 04:33:23;;;;;;;13.45;11.13;;;;;;;19.39;75.28;95132.94;5089742;28;20055;-76
2021/06/20 04:35:50;;;;;;;14.23;10.82;;;;;;;19.45;74.46;95139.63;5091584;28;20070;-76
2021/06/20 04:38:16;;;;;;;14.65;11.20;;;;;;;19.60;74.16;95127.47;5088543;28;20113;-76
2021/06/20 04:40:42;;;;;;;12.93;10.90;;;;;;;19.70;74.24;95132.34;5090482;28;20485;-76
2021/06/20 04:43:11;;;;;;;15.25;10.95;;;;;;;19.81;73.40;95127.38;5090854;28;21288;-76
2021/06/20 04:45:36;;;;;;;13.50;11.25;;;;;;;19.96;73.31;95149.13;5091839;28;20044;-76
2021/06/20 04:48:03;;;;;;;16.02;11.55;;;;;;;20.10;72.60;95156.75;5088848;28;20044;-76
2021/06/20 04:50:29;;;;;;;13.73;10.68;;;;;;;20.27;72.36;95155.69;5091522;28;20490;-76
2021/06/20 04:52:55;;;;;;;17.33;11.23;;;;;;;20.43;72.33;95164.56;5089572;28;20286;-76
2021/06/20 04:55:20;;;;;;;15.52;11.27;;;;;;;20.58;70.94;95171.81;5086030;28;20040;-76
2021/06/20 04:57:46;;;;;;;14.38;10.60;;;;;;;20.63;70.76;95175.34;5090103;28;20035;-76
2021/06/20 05:00:12;;;;;;;16.17;11.02;;;;;;;20.74;70.36;95171.09;5092394;28;20036;-76
2021/06/20 05:02:37;;;;;;;16.73;12.18;;;;;;;20.86;70.04;95163.03;5087544;28;20048;-76
2021/06/20 05:05:05;;;;;;;13.88;10.77;;;;;;;20.94;69.83;95175.44;5093217;28;20101;-76
2021/06/20 05:07:30;;;;;;;12.38;11.07;;;;;;;21.05;69.66;95159.66;5090222;28;20497;-76
2021/06/20 05:09:56;;;;;;;14.45;10.50;;;;;;;21.16;70.13;95149.22;5092649;28;20044;-76
2021/06/20 05:12:22;;;;;;;15.80;10.35;;;;;;;21.27;69.42;95155.59;5089314;28;20040;-76
2021/06/20 05:14:47;;;;;;;16.20;10.85;;;;;;;21.44;69.04;95153.69;5093920;28;20445;-76
2021/06/20 05:17:15;;;;;;;14.50;10.55;;;;;;;21.63;68.41;95151.06;5088846;28;20121;-76
2021/06/20 05:19:41;;;;;;;13.70;9.82;;;;;;;21.71;68.16;95135.94;5090392;28;20039;-76
2021/06/20 05:22:09;;;;;;;12.15;10.32;;;;;;;21.81;67.56;95156.06;5091439;28;20042;-76
2021/06/20 05:24:35;;;;;;;17.02;10.77;;;;;;;22.02;66.93;95157.63;5106766;28;20359;-76
2021/06/20 05:27:00;;;;;;;14.05;10.35;;;;;;;22.12;65.36;95154.38;5089910;28;20498;-76
2021/06/20 05:29:26;;;;;;;17.50;10.35;;;;;;;22.17;65.54;95162.16;5088684;28;20043;-78
2021/06/20 05:31:52;;;;;;;14.23;10.15;;;;;;;22.35;64.69;95161.75;5098177;28;20047;-76
2021/06/20 05:34:17;;;;;;;17.65;9.73;;;;;;;22.36;64.87;95168.66;5093850;28;20044;-76
2021/06/20 05:36:43;;;;;;;15.88;9.40;;;;;;;22.46;64.16;95189.53;5092266;28;20455;-76
2021/06/20 05:39:08;;;;;;;13.73;9.30;;;;;;;22.47;64.27;95191.88;5082228;28;20398;-76
2021/06/20 05:41:34;;;;;;;20.00;9.75;;;;;;;22.50;64.22;95193.06;5082492;28;20059;-76
2021/06/20 05:44:00;;;;;;;12.63;9.02;;;;;;;22.60;63.87;95205.91;5089669;28;20036;-76
2021/06/20 05:46:26;;;;;;;15.65;9.02;;;;;;;22.66;64.12;95204.47;5094079;28;20055;-76
2021/06/20 05:48:52;;;;;;;19.60;9.50;;;;;;;22.85;62.25;95216.31;5086482;28;20089;-77
2021/06/20 05:51:18;;;;;;;15.15;9.55;;;;;;;22.91;62.80;95236.34;5090120;28;20036;-77
2021/06/20 05:53:44;;;;;;;17.58;9.27;;;;;;;23.13;61.89;95231.41;5092512;28;20040;-76
2021/06/20 05:56:10;;;;;;;17.50;9.00;;;;;;;23.27;61.97;95220.91;5091239;28;20040;-76
2021/06/20 05:58:35;;;;;;;15.23;8.13;;;;;;;23.40;59.82;95218.03;5093635;28;20040;-76
2021/06/20 06:01:01;;;;;;;15.50;8.85;;;;;;;23.45;60.00;95223.13;5089965;28;20033;-76
2021/06/20 06:03:27;;;;;;;18.30;8.45;;;;;;;23.48;58.94;95220.47;5096502;28;20051;-76
2021/06/20 06:05:53;;;;;;;15.88;7.97;;;;;;;23.53;58.39;95214.03;5090724;28;20119;-76
2021/06/20 06:08:18;;;;;;;19.60;7.75;;;;;;;23.63;57.95;95226.06;5092089;28;20504;-77
2021/06/20 06:10:44;;;;;;;19.33;8.63;;;;;;;23.78;56.84;95237.81;5092464;28;20516;-76
2021/06/20 06:13:09;;;;;;;23.50;8.50;;;;;;;23.61;57.42;95239.09;5106178;28;20046;-77
2021/06/20 06:15:35;;;;;;;18.40;8.23;;;;;;;23.67;56.72;95241.09;5092112;28;20047;-77
2021/06/20 06:18:02;;;;;;;19.67;7.15;;;;;;;23.69;56.79;95256.84;5090599;28;20037;-76
2021/06/20 06:20:28;;;;;;;15.88;7.13;;;;;;;23.70;56.34;95259.22;5073179;28;20460;-76
2021/06/20 06:22:55;;;;;;;20.02;7.15;;;;;;;23.63;56.53;95264.47;5096308;28;20055;-76
2021/06/20 06:25:20;;;;;;;26.52;7.60;;;;;;;23.67;56.34;95273.34;5099088;28;20040;-76
2021/06/20 06:27:47;;;;;;;21.98;7.50;;;;;;;23.45;56.25;95269.53;5083912;28;20119;-77
2021/06/20 06:30:13;;;;;;;25.95;7.60;;;;;;;23.43;56.69;95271.03;5086317;28;20122;-76
2021/06/20 06:32:39;;;;;;;18.52;7.13;;;;;;;23.48;56.18;95273.41;5093016;28;20525;-76
2021/06/20 06:35:06;;;;;;;24.15;7.00;;;;;;;23.46;56.24;95283.72;5092621;28;20044;-76
2021/06/20 06:37:32;;;;;;;24.50;7.25;;;;;;;23.43;56.88;95281.75;5091473;28;20489;-76
2021/06/20 06:39:57;;;;;;;24.27;8.00;;;;;;;23.35;57.20;95276.28;5100060;28;20051;-76
2021/06/20 06:42:25;;;;;;;20.75;7.55;;;;;;;23.27;57.19;95285.31;5092553;28;20508;-76
2021/06/20 06:44:52;;;;;;;22.13;7.45;;;;;;;23.37;57.12;95293.94;5096311;28;20040;-76
2021/06/20 06:47:18;;;;;;;18.48;6.80;;;;;;;23.30;57.05;95295.38;5088917;28;20052;-76
2021/06/20 06:49:44;;;;;;;23.15;7.68;;;;;;;23.23;57.23;95289.88;5092714;28;20040;-76
2021/06/20 06:52:10;;;;;;;17.10;7.35;;;;;;;23.27;57.60;95306.81;5091396;28;20425;-76
2021/06/20 06:54:35;;;;;;;25.70;8.00;;;;;;;23.30;57.56;95308.81;5089017;28;20054;-76
2021/06/20 06:57:01;;;;;;;26.08;7.15;;;;;;;23.31;57.21;95307.66;5090974;28;20026;-76
2021/06/20 06:59:26;;;;;;;24.10;7.45;;;;;;;23.33;58.00;95310.78;5096998;28;20361;-75
2021/06/20 07:01:52;;;;;;;17.98;7.20;;;;;;;23.30;58.07;95305.31;5092529;28;20115;-76
2021/06/20 07:04:17;;;;;;;18.42;7.28;;;;;;;23.32;57.68;95309.22;5088146;28;20042;-76
2021/06/20 07:06:43;;;;;;;20.08;7.57;;;;;;;23.38;57.92;95315.06;5088863;28;20047;-75
2021/06/20 07:09:08;;;;;;;22.80;7.47;;;;;;;23.41;58.06;95322.41;5082740;28;20112;-75
2021/06/20 07:11:34;;;;;;;21.27;8.05;;;;;;;23.33;58.32;95334.94;5092298;28;20036;-75
2021/06/20 07:13:59;;;;;;;23.38;7.65;;;;;;;23.37;58.17;95331.53;5091410;28;20032;-76
2021/06/20 07:16:25;;;;;;;23.20;8.57;;;;;;;23.40;58.14;95330.81;5091169;28;20093;-76
2021/06/20 07:18:50;;;;;;;21.30;8.25;;;;;;;23.33;58.41;95337.63;5087239;28;20040;-76
2021/06/20 07:21:16;;;;;;;23.08;8.95;;;;;;;23.30;58.88;95332.97;5106938;28;20266;-76
2021/06/20 07:23:41;;;;;;;21.55;7.78;;;;;;;23.33;58.95;95332.25;5105084;28;20039;-76
2021/06/20 07:26:07;;;;;;;23.58;7.97;;;;;;;23.50;58.41;95335.59;5086599;28;20494;-76
2021/06/20 07:28:33;;;;;;;27.42;8.05;;;;;;;23.45;58.46;95333.22;5090098;28;20138;-76
2021/06/20 07:30:58;;;;;;;22.25;7.72;;;;;;;23.43;58.76;95330.91;5090304;28;20755;-75
2021/06/20 07:33:24;;;;;;;20.98;7.38;;;;;;;23.40;58.76;95336.19;5084160;28;20041;-74
2021/06/20 07:35:51;;;;;;;21.38;7.95;;;;;;;23.34;58.72;95328.41;5091426;28;20097;-75
2021/06/20 07:38:18;;;;;;;17.55;8.05;;;;;;;23.35;59.01;95319.22;5093032;28;20489;-75
2021/06/20 07:40:44;;;;;;;24.27;7.63;;;;;;;23.27;58.45;95312.19;5090154;28;20032;-78
2021/06/20 07:43:10;;;;;;;18.42;7.47;;;;;;;23.25;58.98;95319.81;5090714;28;20032;-76
2021/06/20 07:45:37;;;;;;;19.67;7.45;;;;;;;23.39;58.94;95318.50;5092977;28;20051;-78
2021/06/20 07:48:06;;;;;;;19.83;7.15;;;;;;;23.63;58.75;95320.88;5083394;28;20044;-75
2021/06/20 07:50:32;;;;;;;16.92;7.30;;;;;;;23.81;58.62;95317.72;5090362;28;20052;-75
2021/06/20 07:52:57;;;;;;;17.27;6.93;;;;;;;23.80;58.05;95321.53;5091747;28;20093;-75
2021/06/20 07:55:23;;;;;;;21.10;7.28;;;;;;;23.78;58.23;95329.16;5090759;28;20086;-75
2021/06/20 07:57:48;;;;;;;21.70;7.45;;;;;;;23.83;58.12;95326.97;5083379;28;20530;-74
2021/06/20 08:00:14;;;;;;;15.98;7.60;;;;;;;23.88;58.39;95333.97;5092498;28;20040;-78
2021/06/20 08:02:41;;;;;;;22.38;8.02;;;;;;;24.03;57.41;95346.50;5093641;28;20040;-77
2021/06/20 08:05:07;;;;;;;19.30;7.63;;;;;;;24.10;57.51;95342.38;5088814;28;20489;-75
2021/06/20 08:07:33;;;;;;;23.83;7.88;;;;;;;23.95;57.46;95350.22;5089051;28;20052;-76
2021/06/20 08:09:59;;;;;;;22.55;7.28;;;;;;;23.82;57.24;95346.91;5086184;28;20417;-75
2021/06/20 08:12:26;;;;;;;21.08;8.15;;;;;;;23.96;58.12;95365.19;5091899;28;20096;-75
2021/06/20 08:14:52;;;;;;;24.50;7.32;;;;;;;24.06;57.49;95361.13;5091966;28;20043;-75
2021/06/20 08:17:18;;;;;;;22.17;7.93;;;;;;;23.98;57.86;95354.84;5089593;28;20118;-75
2021/06/20 08:19:44;;;;;;;21.65;7.05;;;;;;;24.03;57.73;95343.81;5090763;28;20039;-75
2021/06/20 08:22:10;;;;;;;21.00;7.22;;;;;;;23.98;58.40;95338.72;5090637;28;20036;-75
2021/06/20 08:24:37;;;;;;;21.90;7.68;;;;;;;23.96;58.09;95335.63;5091408;28;20051;-75
2021/06/20 08:27:03;;;;;;;25.90;7.50;;;;;;;24.00;57.72;95341.81;5086213;28;20459;-74
2021/06/20 08:29:29;;;;;;;24.35;8.05;;;;;;;23.86;58.39;95342.41;5090033;28;20082;-75
2021/06/20 08:31:55;;;;;;;21.83;8.25;;;;;;;24.08;58.06;95347.31;5091771;28;20444;-74
2021/06/20 08:34:20;;;;;;;19.50;7.53;;;;;;;24.00;58.61;95336.44;5084126;28;20406;-75
2021/06/20 08:36:47;;;;;;;21.45;6.97;;;;;;;24.26;56.55;95326.09;5071556;28;20496;-74
2021/06/20 08:39:13;;;;;;;27.00;6.85;;;;;;;24.08;56.11;95336.56;5070783;28;20040;-74
2021/06/20 08:41:42;;;;;;;22.85;6.63;;;;;;;24.01;55.75;95338.00;5086945;28;20047;-75
2021/06/20 08:44:16;;;;;;;25.83;7.07;;;;;;;24.08;56.32;95344.63;5091428;28;20043;-75
2021/06/20 08:46:42;;;;;;;32.38;7.53;;;;;;;24.58;54.60;95345.34;5091145;28;20040;-75
2021/06/20 08:49:08;;;;;;;28.23;6.85;;;;;;;24.87;53.03;95348.47;5088146;28;20043;-75
2021/06/20 08:51:34;;;;;;;25.80;6.53;;;;;;;25.13;51.96;95365.66;5089788;28;20044;-74
2021/06/20 08:54:00;;;;;;;27.67;7.07;;;;;;;25.12;51.37;95364.13;5090018;28;20040;-75
2021/06/20 08:56:27;;;;;;;21.00;5.82;;;;;;;25.24;51.45;95361.16;5090782;28;20461;-77
2021/06/20 08:58:52;;;;;;;29.67;6.55;;;;;;;24.81;51.28;95355.28;5086365;28;20097;-78
2021/06/20 09:01:18;;;;;;;26.75;6.63;;;;;;;25.17;52.24;95350.31;5091374;28;20493;-77
2021/06/20 09:03:45;;;;;;;27.25;6.18;;;;;;;24.92;51.99;95345.44;5090051;28;20122;-77
2021/06/20 09:06:19;;;;;;;29.80;6.10;;;;;;;25.06;52.13;95350.22;5091943;28;20083;-78
2021/06/20 09:08:49;;;;;;;29.20;6.68;;;;;;;25.02;51.85;95344.78;5087049;28;20043;-78
2021/06/20 09:11:33;;;;;;;28.75;6.57;;;;;;;24.61;52.09;95335.81;5090743;28;20485;-78
2021/06/20 09:14:16;;;;;;;30.10;7.13;;;;;;;24.83;52.29;95334.19;5072469;28;20036;-77
2021/06/20 09:16:59;;;;;;;24.77;6.13;;;;;;;25.04;52.05;95320.97;5072154;28;20433;-77
2021/06/20 09:19:32;;;;;;;29.33;6.90;;;;;;;25.04;51.27;95315.59;5073659;28;20826;-76
2021/06/20 09:22:04;;;;;;;24.25;6.55;;;;;;;25.07;52.06;95309.47;5081253;28;20062;-76
2021/06/20 09:24:31;;;;;;;25.42;6.65;;;;;;;25.12;52.14;95307.59;5090574;28;20549;-77
2021/06/20 09:26:58;;;;;;;26.77;6.18;;;;;;;25.00;51.29;95303.25;5083588;28;20125;-76
2021/06/20 09:29:29;;;;;;;21.27;6.45;;;;;;;25.42;51.25;95292.13;5075037;28;20036;-77
2021/06/20 09:31:55;;;;;;;21.67;6.18;;;;;;;25.35;49.30;95297.47;5092339;28;20049;-77
2021/06/20 09:34:20;;;;;;;22.63;5.50;;;;;;;25.42;48.05;95292.13;5089371;28;20089;-77
2021/06/20 09:36:46;;;;;;;18.73;5.68;;;;;;;25.31;47.61;95275.09;5078013;28;20149;-76
2021/06/20 09:39:22;;;;;;;20.80;5.20;;;;;;;25.68;49.12;95286.97;5087380;28;20505;-77
2021/06/20 09:42:03;;;;;;;21.30;4.70;;;;;;;25.68;46.93;95289.69;5088280;28;20033;-77
2021/06/20 09:44:38;;;;;;;19.63;5.38;;;;;;;25.88;46.34;95301.00;5094262;28;20047;-77
2021/06/20 09:47:05;;;;;;;14.32;4.93;;;;;;;25.96;47.50;95296.44;5093584;28;20039;-76
2021/06/20 09:49:31;;;;;;;17.52;5.07;;;;;;;25.74;47.14;95278.16;5096322;28;20400;-76
2021/06/20 09:51:58;;;;;;;18.23;5.68;;;;;;;25.87;47.74;95280.56;5093608;28;20544;-76
2021/06/20 09:54:52;;;;;;;18.65;5.32;;;;;;;26.22;46.38;95276.59;5087855;28;20505;-76
2021/06/20 09:57:17;;;;;;;23.95;5.80;;;;;;;25.86;47.88;95265.53;5080652;28;20533;-76
2021/06/20 09:59:58;;;;;;;22.70;5.57;;;;;;;26.25;47.10;95265.06;5073522;28;20115;-76
2021/06/20 10:02:27;;;;;;;21.13;5.32;;;;;;;26.59;46.34;95273.72;5088096;28;20048;-76
2021/06/20 10:04:53;;;;;;;19.52;5.43;;;;;;;26.77;46.05;95273.03;5093784;28;20036;-76
2021/06/20 10:07:20;;;;;;;16.75;5.20;;;;;;;27.03;44.29;95258.47;5086406;28;20115;-76
2021/06/20 10:09:47;;;;;;;20.80;5.22;;;;;;;27.16;43.78;95255.41;5073247;28;20041;-77
2021/06/20 10:12:12;;;;;;;27.02;5.70;;;;;;;27.27;45.22;95242.69;5073278;28;20064;-76
2021/06/20 10:14:46;;;;;;;19.65;5.30;;;;;;;27.28;43.76;95246.91;5088369;28;20123;-77
2021/06/20 10:17:14;;;;;;;20.92;5.28;;;;;;;27.51;43.22;95243.88;5088213;28;20040;-76
2021/06/20 10:19:41;;;;;;;27.10;5.70;;;;;;;27.39;43.01;95242.34;5093266;28;20085;-76
2021/06/20 10:22:12;;;;;;;23.48;5.88;;;;;;;27.91;41.51;95233.06;5091711;28;20097;-76
2021/06/20 10:24:56;;;;;;;23.70;5.38;;;;;;;28.04;43.57;95230.75;5085132;28;20392;-76
2021/06/20 10:27:41;;;;;;;26.23;5.82;;;;;;;27.69;42.36;95233.06;5078879;28;20041;-76
2021/06/20 10:30:16;;;;;;;20.25;5.65;;;;;;;27.96;42.10;95229.97;5087061;28;20036;-76
2021/06/20 10:32:46;;;;;;;21.80;5.75;;;;;;;28.62;40.79;95236.75;5092832;28;20040;-76
2021/06/20 10:35:23;;;;;;;22.27;5.70;;;;;;;28.71;40.69;95234.41;5089506;28;20492;-76
2021/06/20 10:37:51;;;;;;;21.00;5.72;;;;;;;28.36;42.43;95233.38;5072445;28;20044;-76
2021/06/20 10:40:29;;;;;;;25.02;5.63;;;;;;;28.13;40.87;95234.59;5090547;28;20405;-76
2021/06/20 10:42:57;;;;;;;23.38;5.63;;;;;;;28.50;40.29;95236.03;5092893;28;20041;-76
2021/06/20 10:45:32;;;;;;;23.10;5.65;;;;;;;27.95;41.59;95236.53;5092271;28;20493;-76
2021/06/20 10:48:10;;;;;;;24.77;5.40;;;;;;;27.71;42.13;95229.97;5091330;28;20036;-76
2021/06/20 10:50:38;;;;;;;24.10;5.90;;;;;;;28.28;41.62;95224.50;5092678;28;20047;-76
2021/06/20 10:53:04;;;;;;;19.17;5.70;;;;;;;28.29;41.40;95214.47;5092611;28;20036;-76
2021/06/20 10:55:53;;;;;;;22.38;5.65;;;;;;;28.67;40.90;95212.00;5092302;28;20107;-76
2021/06/20 10:58:28;;;;;;;22.17;5.50;;;;;;;29.04;39.71;95197.09;5092249;28;20051;-76
2021/06/20 11:01:06;;;;;;;22.60;5.78;;;;;;;29.35;39.98;95205.41;5090797;28;20044;-76
2021/06/20 11:03:33;;;;;;;27.08;6.30;;;;;;;29.68;38.19;95205.91;5092060;28;20044;-75
2021/06/20 11:06:11;;;;;;;19.50;5.20;;;;;;;30.21;38.00;95204.66;5084385;28;20382;-76
2021/06/20 11:08:40;;;;;;;21.73;5.93;;;;;;;30.31;37.92;95202.22;5088712;28;20044;-76
2021/06/20 11:11:15;;;;;;;23.17;5.93;;;;;;;30.23;37.72;95191.44;5088481;28;20040;-76
2021/06/20 11:13:44;;;;;;;27.67;6.15;;;;;;;30.89;36.91;95186.75;5091303;28;20036;-77
2021/06/20 11:16:22;;;;;;;19.77;5.80;;;;;;;31.13;35.47;95173.22;5091916;28;20051;-77
2021/06/20 11:18:47;;;;;;;21.73;5.93;;;;;;;30.83;36.36;95177.53;5092180;28;20032;-75
2021/06/20 11:21:13;;;;;;;19.90;5.65;;;;;;;31.21;35.59;95169.22;5087152;28;20064;-77
2021/06/20 11:23:42;;;;;;;19.85;5.63;;;;;;;29.88;38.62;95170.88;5090795;28;20040;-77